CANN03 YWLM-YWLM
Flight info
| Callsign | CANN03 |
|---|---|
| Flight time | 1h 41m |
| Altitude | 26000 |
| Route | URKIX DCT TESAT DCT LOWDI DCT VELGI DCT BENBU DCT MAKOR |
| Aircraft | F18/M-SDGHITUY/LB1 |
Departure
| Time | 2026-04-17 09:51 |
|---|---|
| Airport | Newcastle Airport (YWLM) |
Arrival
| Time | 2026-04-17 11:33 |
|---|---|
| Airport | Newcastle Airport (YWLM) |
| Time | Latitude | Longitude | Altitude | Speed | Heading |
|---|---|---|---|---|---|
| 2026-04-17 08:56 | -32.79095 | 151.83782 | 30 ft | 0 kts | 235° |
| 2026-04-17 09:41 | -32.79102 | 151.83772 | 30 ft | 5 kts | 227° |
| 2026-04-17 09:41 | -32.79133 | 151.83771 | 30 ft | 7 kts | 189° |
| 2026-04-17 09:41 | -32.79177 | 151.83729 | 30 ft | 11 kts | 219° |
| 2026-04-17 09:42 | -32.79246 | 151.83659 | 31 ft | 17 kts | 221° |
| 2026-04-17 09:42 | -32.79337 | 151.83567 | 29 ft | 18 kts | 219° |
| 2026-04-17 09:42 | -32.79421 | 151.83537 | 28 ft | 12 kts | 130° |
| 2026-04-17 09:42 | -32.79484 | 151.83627 | 27 ft | 19 kts | 129° |
| 2026-04-17 09:43 | -32.79582 | 151.83763 | 28 ft | 22 kts | 130° |
| 2026-04-17 09:43 | -32.79696 | 151.83921 | 30 ft | 28 kts | 134° |
| 2026-04-17 09:43 | -32.79827 | 151.84104 | 33 ft | 29 kts | 130° |
| 2026-04-17 09:43 | -32.79955 | 151.84282 | 31 ft | 28 kts | 130° |
| 2026-04-17 09:44 | -32.80075 | 151.84452 | 28 ft | 26 kts | 129° |
| 2026-04-17 09:44 | -32.80183 | 151.84601 | 29 ft | 16 kts | 132° |
| 2026-04-17 09:44 | -32.80165 | 151.84674 | 30 ft | 11 kts | 38° |
| 2026-04-17 09:44 | -32.80119 | 151.84759 | 29 ft | 14 kts | 126° |
| 2026-04-17 09:45 | -32.80178 | 151.84843 | 28 ft | 11 kts | 129° |
| 2026-04-17 09:45 | -32.80213 | 151.84849 | 29 ft | 0 kts | 221° |
| 2026-04-17 09:49 | -32.80214 | 151.84848 | 29 ft | 2 kts | 218° |
| 2026-04-17 09:49 | -32.80259 | 151.84837 | 30 ft | 10 kts | 213° |
| 2026-04-17 09:49 | -32.80321 | 151.84795 | 30 ft | 11 kts | 139° |
| 2026-04-17 09:50 | -32.80389 | 151.84832 | 32 ft | 11 kts | 195° |
| 2026-04-17 09:50 | -32.80422 | 151.84808 | 31 ft | 0 kts | 219° |
| 2026-04-17 09:50 | -32.80454 | 151.84774 | 31 ft | 9 kts | 221° |
| 2026-04-17 09:51 | -32.80451 | 151.84686 | 29 ft | 22 kts | 310° |
| 2026-04-17 09:51 | -32.79943 | 151.83969 | 69 ft | 211 kts | 310° |
| 2026-04-17 09:51 | -32.78676 | 151.82137 | 913 ft | 304 kts | 300° |
| 2026-04-17 09:51 | -32.78782 | 151.79968 | 2836 ft | 268 kts | 225° |
| 2026-04-17 09:52 | -32.80601 | 151.79675 | 4109 ft | 284 kts | 176° |
| 2026-04-17 09:52 | -32.82635 | 151.80005 | 4990 ft | 306 kts | 175° |
| 2026-04-17 09:52 | -32.84805 | 151.80530 | 5715 ft | 327 kts | 172° |
| 2026-04-17 09:52 | -32.87067 | 151.81121 | 6625 ft | 337 kts | 171° |
| 2026-04-17 09:53 | -32.88586 | 151.81527 | 7295 ft | 339 kts | 171° |
| 2026-04-17 09:53 | -32.91729 | 151.82371 | 8365 ft | 352 kts | 171° |
| 2026-04-17 09:53 | -32.93319 | 151.82809 | 8962 ft | 354 kts | 171° |
| 2026-04-17 09:53 | -32.95727 | 151.83454 | 9908 ft | 356 kts | 172° |
| 2026-04-17 09:54 | -32.98967 | 151.84302 | 10878 ft | 362 kts | 173° |
| 2026-04-17 09:54 | -33.01449 | 151.84910 | 11616 ft | 365 kts | 174° |
| 2026-04-17 09:54 | -33.03142 | 151.85292 | 12243 ft | 366 kts | 175° |
| 2026-04-17 09:54 | -33.05661 | 151.85809 | 13141 ft | 368 kts | 176° |
| 2026-04-17 09:55 | -33.08200 | 151.86334 | 14002 ft | 370 kts | 176° |
| 2026-04-17 09:55 | -33.10744 | 151.86859 | 14740 ft | 373 kts | 177° |
| 2026-04-17 09:55 | -33.13289 | 151.87375 | 15399 ft | 377 kts | 178° |
| 2026-04-17 09:55 | -33.15887 | 151.87842 | 16136 ft | 375 kts | 179° |
| 2026-04-17 09:56 | -33.18458 | 151.88279 | 16997 ft | 374 kts | 180° |
| 2026-04-17 09:56 | -33.21039 | 151.88715 | 17734 ft | 374 kts | 180° |
| 2026-04-17 09:56 | -33.23596 | 151.89098 | 18608 ft | 367 kts | 182° |
| 2026-04-17 09:56 | -33.26131 | 151.89440 | 19377 ft | 364 kts | 183° |
| 2026-04-17 09:57 | -33.28640 | 151.89772 | 20162 ft | 361 kts | 184° |
| 2026-04-17 09:57 | -33.31134 | 151.90076 | 20896 ft | 359 kts | 185° |
| 2026-04-17 09:57 | -33.33609 | 151.90331 | 21638 ft | 352 kts | 189° |
| 2026-04-17 09:57 | -33.35933 | 151.89933 | 22241 ft | 336 kts | 204° |
| 2026-04-17 09:58 | -33.38064 | 151.89062 | 23228 ft | 314 kts | 214° |
| 2026-04-17 09:58 | -33.39867 | 151.87763 | 24082 ft | 296 kts | 225° |
| 2026-04-17 09:58 | -33.41554 | 151.86360 | 24752 ft | 294 kts | 226° |
| 2026-04-17 09:58 | -33.43273 | 151.84918 | 25399 ft | 309 kts | 226° |
| 2026-04-17 09:59 | -33.45067 | 151.83372 | 25827 ft | 330 kts | 226° |
| 2026-04-17 09:59 | -33.46974 | 151.81662 | 25952 ft | 354 kts | 226° |
| 2026-04-17 09:59 | -33.48982 | 151.79793 | 25983 ft | 375 kts | 228° |
| 2026-04-17 09:59 | -33.50827 | 151.77549 | 26165 ft | 381 kts | 236° |
| 2026-04-17 10:00 | -33.52590 | 151.75096 | 26204 ft | 396 kts | 236° |
| 2026-04-17 10:00 | -33.54401 | 151.72533 | 26215 ft | 409 kts | 236° |
| 2026-04-17 10:00 | -33.56274 | 151.69903 | 26224 ft | 420 kts | 236° |
| 2026-04-17 10:00 | -33.58209 | 151.67218 | 26232 ft | 429 kts | 235° |
| 2026-04-17 10:01 | -33.60187 | 151.64496 | 26233 ft | 436 kts | 235° |
| 2026-04-17 10:01 | -33.62192 | 151.61764 | 26237 ft | 435 kts | 234° |
| 2026-04-17 10:01 | -33.64168 | 151.59089 | 26238 ft | 432 kts | 234° |
| 2026-04-17 10:01 | -33.66163 | 151.56400 | 26239 ft | 430 kts | 234° |
| 2026-04-17 10:02 | -33.68147 | 151.53729 | 26235 ft | 428 kts | 234° |
| 2026-04-17 10:02 | -33.70127 | 151.51064 | 26240 ft | 427 kts | 234° |
| 2026-04-17 10:02 | -33.72101 | 151.48406 | 26240 ft | 426 kts | 234° |
| 2026-04-17 10:02 | -33.74076 | 151.45744 | 26239 ft | 426 kts | 234° |
| 2026-04-17 10:03 | -33.76046 | 151.43088 | 26240 ft | 425 kts | 234° |
| 2026-04-17 10:03 | -33.78007 | 151.40441 | 26237 ft | 425 kts | 234° |
| 2026-04-17 10:03 | -33.79977 | 151.37781 | 26239 ft | 424 kts | 234° |
| 2026-04-17 10:03 | -33.81941 | 151.35130 | 26236 ft | 424 kts | 234° |
| 2026-04-17 10:04 | -33.83901 | 151.32479 | 26234 ft | 424 kts | 234° |
| 2026-04-17 10:04 | -33.85859 | 151.29828 | 26232 ft | 424 kts | 234° |
| 2026-04-17 10:04 | -33.87792 | 151.27209 | 26228 ft | 424 kts | 235° |
| 2026-04-17 10:04 | -33.89730 | 151.24530 | 26226 ft | 421 kts | 237° |
| 2026-04-17 10:05 | -33.90647 | 151.21352 | 26192 ft | 405 kts | 271° |
| 2026-04-17 10:05 | -33.90033 | 151.18030 | 26201 ft | 408 kts | 283° |
| 2026-04-17 10:05 | -33.89147 | 151.14784 | 26216 ft | 409 kts | 285° |
| 2026-04-17 10:05 | -33.88190 | 151.11558 | 26223 ft | 410 kts | 286° |
| 2026-04-17 10:06 | -33.87201 | 151.08316 | 26226 ft | 410 kts | 287° |
| 2026-04-17 10:06 | -33.86219 | 151.05133 | 26224 ft | 411 kts | 287° |
| 2026-04-17 10:06 | -33.85223 | 151.01907 | 26229 ft | 411 kts | 287° |
| 2026-04-17 10:06 | -33.84225 | 150.98670 | 26234 ft | 412 kts | 287° |
| 2026-04-17 10:07 | -33.83232 | 150.95437 | 26232 ft | 412 kts | 287° |
| 2026-04-17 10:07 | -33.82248 | 150.92205 | 26231 ft | 412 kts | 286° |
| 2026-04-17 10:07 | -33.81280 | 150.88962 | 26232 ft | 412 kts | 286° |
| 2026-04-17 10:07 | -33.80361 | 150.85748 | 26230 ft | 411 kts | 285° |
| 2026-04-17 10:08 | -33.79478 | 150.82477 | 26228 ft | 411 kts | 284° |
| 2026-04-17 10:08 | -33.78647 | 150.79201 | 26221 ft | 410 kts | 283° |
| 2026-04-17 10:08 | -33.77847 | 150.75899 | 26229 ft | 410 kts | 283° |
| 2026-04-17 10:08 | -33.77071 | 150.72599 | 26227 ft | 410 kts | 283° |
| 2026-04-17 10:09 | -33.76310 | 150.69290 | 26231 ft | 410 kts | 282° |
| 2026-04-17 10:09 | -33.75558 | 150.65971 | 26228 ft | 411 kts | 282° |
| 2026-04-17 10:09 | -33.74818 | 150.62659 | 26227 ft | 410 kts | 282° |
| 2026-04-17 10:09 | -33.74083 | 150.59340 | 26232 ft | 411 kts | 282° |
| 2026-04-17 10:10 | -33.73352 | 150.56016 | 26226 ft | 411 kts | 282° |
| 2026-04-17 10:10 | -33.72633 | 150.52733 | 26231 ft | 411 kts | 282° |
| 2026-04-17 10:10 | -33.71898 | 150.49369 | 26234 ft | 412 kts | 282° |
| 2026-04-17 10:11 | -33.70442 | 150.42711 | 26242 ft | 413 kts | 282° |
| 2026-04-17 10:11 | -33.69711 | 150.39373 | 26242 ft | 413 kts | 282° |
| 2026-04-17 10:11 | -33.68988 | 150.36074 | 26248 ft | 414 kts | 282° |
| 2026-04-17 10:11 | -33.68255 | 150.32731 | 26257 ft | 415 kts | 282° |
| 2026-04-17 10:12 | -33.67517 | 150.29379 | 26254 ft | 415 kts | 282° |
| 2026-04-17 10:12 | -33.66777 | 150.26017 | 26246 ft | 416 kts | 282° |
| 2026-04-17 10:12 | -33.66037 | 150.22660 | 26253 ft | 416 kts | 282° |
| 2026-04-17 10:12 | -33.65296 | 150.19301 | 26252 ft | 416 kts | 282° |
| 2026-04-17 10:13 | -33.64551 | 150.15934 | 26257 ft | 416 kts | 282° |
| 2026-04-17 10:13 | -33.63808 | 150.12572 | 26249 ft | 417 kts | 282° |
| 2026-04-17 10:13 | -33.63080 | 150.09251 | 26245 ft | 417 kts | 281° |
| 2026-04-17 10:13 | -33.62338 | 150.05878 | 26247 ft | 417 kts | 281° |
| 2026-04-17 10:14 | -33.61594 | 150.02513 | 26249 ft | 417 kts | 281° |
| 2026-04-17 10:14 | -33.60848 | 149.99150 | 26242 ft | 417 kts | 281° |
| 2026-04-17 10:14 | -33.60097 | 149.95780 | 26255 ft | 418 kts | 281° |
| 2026-04-17 10:14 | -33.59345 | 149.92415 | 26247 ft | 418 kts | 281° |
| 2026-04-17 10:15 | -33.58589 | 149.89041 | 26251 ft | 418 kts | 281° |
| 2026-04-17 10:15 | -33.57842 | 149.85712 | 26243 ft | 418 kts | 281° |
| 2026-04-17 10:15 | -33.57084 | 149.82340 | 26253 ft | 419 kts | 281° |
| 2026-04-17 10:15 | -33.56325 | 149.78966 | 26254 ft | 419 kts | 281° |
| 2026-04-17 10:16 | -33.55565 | 149.75594 | 26255 ft | 419 kts | 281° |
| 2026-04-17 10:16 | -33.54803 | 149.72221 | 26251 ft | 419 kts | 281° |
| 2026-04-17 10:16 | -33.54095 | 149.68840 | 26264 ft | 417 kts | 277° |
| 2026-04-17 10:16 | -33.53710 | 149.65393 | 26264 ft | 416 kts | 274° |
| 2026-04-17 10:17 | -33.53427 | 149.61943 | 26264 ft | 416 kts | 273° |
| 2026-04-17 10:17 | -33.53160 | 149.58486 | 26259 ft | 417 kts | 273° |
| 2026-04-17 10:17 | -33.52886 | 149.55031 | 26261 ft | 417 kts | 273° |
| 2026-04-17 10:17 | -33.52598 | 149.51563 | 26263 ft | 417 kts | 273° |
| 2026-04-17 10:18 | -33.52299 | 149.48100 | 26269 ft | 417 kts | 274° |
| 2026-04-17 10:18 | -33.51991 | 149.44641 | 26259 ft | 417 kts | 274° |
| 2026-04-17 10:18 | -33.51675 | 149.41178 | 26266 ft | 418 kts | 273° |
| 2026-04-17 10:18 | -33.51354 | 149.37717 | 26254 ft | 418 kts | 273° |
| 2026-04-17 10:19 | -33.51031 | 149.34205 | 25777 ft | 426 kts | 273° |
| 2026-04-17 10:19 | -33.50703 | 149.30714 | 26148 ft | 406 kts | 274° |
| 2026-04-17 10:19 | -33.50374 | 149.27319 | 26276 ft | 412 kts | 274° |
| 2026-04-17 10:19 | -33.50038 | 149.23896 | 26283 ft | 413 kts | 274° |
| 2026-04-17 10:20 | -33.49701 | 149.20474 | 26290 ft | 414 kts | 274° |
| 2026-04-17 10:20 | -33.49363 | 149.17046 | 26294 ft | 415 kts | 274° |
| 2026-04-17 10:20 | -33.49023 | 149.13615 | 26297 ft | 416 kts | 274° |
| 2026-04-17 10:20 | -33.48681 | 149.10163 | 26297 ft | 416 kts | 274° |
| 2026-04-17 10:21 | -33.48342 | 149.06759 | 26305 ft | 417 kts | 274° |
| 2026-04-17 10:21 | -33.47998 | 149.03313 | 26305 ft | 417 kts | 274° |
| 2026-04-17 10:21 | -33.47652 | 148.99864 | 26303 ft | 417 kts | 274° |
| 2026-04-17 10:21 | -33.47306 | 148.96414 | 26304 ft | 418 kts | 274° |
| 2026-04-17 10:22 | -33.46958 | 148.92958 | 26313 ft | 418 kts | 274° |
| 2026-04-17 10:22 | -33.46608 | 148.89497 | 26313 ft | 418 kts | 274° |
| 2026-04-17 10:22 | -33.46258 | 148.86038 | 26320 ft | 419 kts | 274° |
| 2026-04-17 10:22 | -33.45906 | 148.82572 | 26321 ft | 419 kts | 274° |
| 2026-04-17 10:23 | -33.45552 | 148.79104 | 26325 ft | 419 kts | 274° |
| 2026-04-17 10:23 | -33.45197 | 148.75643 | 26323 ft | 419 kts | 274° |
| 2026-04-17 10:23 | -33.44841 | 148.72197 | 26317 ft | 405 kts | 274° |
| 2026-04-17 10:23 | -33.44504 | 148.69008 | 26317 ft | 370 kts | 273° |
| 2026-04-17 10:24 | -33.44192 | 148.66071 | 26316 ft | 342 kts | 274° |
| 2026-04-17 10:24 | -33.43906 | 148.63366 | 26309 ft | 322 kts | 273° |
| 2026-04-17 10:24 | -33.43630 | 148.60740 | 26314 ft | 306 kts | 273° |
| 2026-04-17 10:24 | -33.43375 | 148.58293 | 26302 ft | 293 kts | 273° |
| 2026-04-17 10:25 | -33.43129 | 148.55920 | 26304 ft | 283 kts | 273° |
| 2026-04-17 10:25 | -33.42890 | 148.53590 | 26306 ft | 281 kts | 273° |
| 2026-04-17 10:25 | -33.42653 | 148.51267 | 26307 ft | 279 kts | 273° |
| 2026-04-17 10:25 | -33.42417 | 148.48969 | 26310 ft | 278 kts | 273° |
| 2026-04-17 10:26 | -33.42181 | 148.46676 | 26304 ft | 277 kts | 273° |
| 2026-04-17 10:26 | -33.41944 | 148.44390 | 26312 ft | 276 kts | 273° |
| 2026-04-17 10:26 | -33.41709 | 148.42136 | 26319 ft | 276 kts | 273° |
| 2026-04-17 10:26 | -33.41471 | 148.39852 | 26323 ft | 276 kts | 273° |
| 2026-04-17 10:27 | -33.41236 | 148.37600 | 26322 ft | 276 kts | 273° |
| 2026-04-17 10:27 | -33.40998 | 148.35329 | 26320 ft | 275 kts | 273° |
| 2026-04-17 10:27 | -33.40758 | 148.33048 | 26326 ft | 275 kts | 273° |
| 2026-04-17 10:27 | -33.40518 | 148.30775 | 26326 ft | 276 kts | 272° |
| 2026-04-17 10:28 | -33.40278 | 148.28501 | 26329 ft | 276 kts | 272° |
| 2026-04-17 10:28 | -33.40039 | 148.26223 | 26327 ft | 276 kts | 272° |
| 2026-04-17 10:28 | -33.39798 | 148.23952 | 26329 ft | 276 kts | 272° |
| 2026-04-17 10:28 | -33.39557 | 148.21677 | 26331 ft | 276 kts | 272° |
| 2026-04-17 10:29 | -33.39313 | 148.19394 | 26330 ft | 276 kts | 272° |
| 2026-04-17 10:29 | -33.39070 | 148.17121 | 26328 ft | 276 kts | 273° |
| 2026-04-17 10:29 | -33.38829 | 148.14879 | 26330 ft | 276 kts | 273° |
| 2026-04-17 10:29 | -33.38584 | 148.12601 | 26332 ft | 276 kts | 273° |
| 2026-04-17 10:30 | -33.38338 | 148.10327 | 26329 ft | 276 kts | 273° |
| 2026-04-17 10:30 | -33.38300 | 148.08046 | 26331 ft | 273 kts | 265° |
| 2026-04-17 10:30 | -33.38306 | 148.05770 | 26329 ft | 274 kts | 269° |
| 2026-04-17 10:30 | -33.38227 | 148.03487 | 26332 ft | 274 kts | 270° |
| 2026-04-17 10:31 | -33.38053 | 148.01213 | 26330 ft | 276 kts | 274° |
| 2026-04-17 10:31 | -33.37745 | 147.98948 | 26331 ft | 276 kts | 275° |
| 2026-04-17 10:31 | -33.37974 | 147.96762 | 26324 ft | 279 kts | 234° |
| 2026-04-17 10:31 | -33.39899 | 147.95962 | 26333 ft | 311 kts | 198° |
| 2026-04-17 10:32 | -33.42085 | 147.95758 | 26342 ft | 318 kts | 193° |
| 2026-04-17 10:32 | -33.44279 | 147.95666 | 26339 ft | 321 kts | 192° |
| 2026-04-17 10:32 | -33.46534 | 147.95683 | 26341 ft | 333 kts | 184° |
| 2026-04-17 10:32 | -33.48390 | 147.97500 | 26295 ft | 391 kts | 114° |
| 2026-04-17 10:33 | -33.47833 | 148.00532 | 26089 ft | 379 kts | 38° |
| 2026-04-17 10:33 | -33.45616 | 148.01976 | 25981 ft | 360 kts | 12° |
| 2026-04-17 10:33 | -33.43288 | 148.03139 | 25975 ft | 362 kts | 11° |
| 2026-04-17 10:33 | -33.40947 | 148.04295 | 25974 ft | 364 kts | 11° |
| 2026-04-17 10:34 | -33.38596 | 148.05450 | 25974 ft | 366 kts | 11° |
| 2026-04-17 10:34 | -33.36270 | 148.06589 | 25968 ft | 367 kts | 11° |
| 2026-04-17 10:34 | -33.33898 | 148.07747 | 25966 ft | 368 kts | 11° |
| 2026-04-17 10:34 | -33.31525 | 148.08903 | 25967 ft | 369 kts | 11° |
| 2026-04-17 10:35 | -33.29146 | 148.10060 | 25967 ft | 369 kts | 11° |
| 2026-04-17 10:35 | -33.26755 | 148.10739 | 25897 ft | 320 kts | 334° |
| 2026-04-17 10:35 | -33.25737 | 148.09055 | 26183 ft | 251 kts | 260° |
| 2026-04-17 10:35 | -33.27116 | 148.07683 | 25620 ft | 308 kts | 201° |
| 2026-04-17 10:36 | -33.29291 | 148.07473 | 25712 ft | 315 kts | 193° |
| 2026-04-17 10:36 | -33.31504 | 148.07363 | 25649 ft | 321 kts | 192° |
| 2026-04-17 10:36 | -33.33757 | 148.07281 | 25639 ft | 322 kts | 192° |
| 2026-04-17 10:36 | -33.36004 | 148.07218 | 25728 ft | 322 kts | 191° |
| 2026-04-17 10:37 | -33.38258 | 148.07165 | 25731 ft | 323 kts | 191° |
| 2026-04-17 10:37 | -33.40501 | 148.07119 | 25727 ft | 322 kts | 191° |
| 2026-04-17 10:37 | -33.42713 | 148.07076 | 25735 ft | 321 kts | 191° |
| 2026-04-17 10:37 | -33.44950 | 148.07034 | 25738 ft | 321 kts | 191° |
| 2026-04-17 10:38 | -33.47180 | 148.06992 | 25741 ft | 320 kts | 191° |
| 2026-04-17 10:38 | -33.49407 | 148.06949 | 25735 ft | 320 kts | 191° |
| 2026-04-17 10:38 | -33.51631 | 148.06906 | 25740 ft | 320 kts | 191° |
| 2026-04-17 10:38 | -33.53854 | 148.06862 | 25743 ft | 319 kts | 191° |
| 2026-04-17 10:39 | -33.56077 | 148.06818 | 25746 ft | 319 kts | 191° |
| 2026-04-17 10:39 | -33.58300 | 148.06774 | 25743 ft | 319 kts | 191° |
| 2026-04-17 10:39 | -33.60523 | 148.06728 | 25745 ft | 319 kts | 191° |
| 2026-04-17 10:39 | -33.62742 | 148.06682 | 25751 ft | 319 kts | 191° |
| 2026-04-17 10:40 | -33.64979 | 148.06838 | 25744 ft | 338 kts | 174° |
| 2026-04-17 10:40 | -33.66220 | 148.08084 | 25681 ft | 377 kts | 124° |
| 2026-04-17 10:40 | -33.66004 | 148.11085 | 25490 ft | 371 kts | 44° |
| 2026-04-17 10:40 | -33.63915 | 148.12548 | 25421 ft | 345 kts | 11° |
| 2026-04-17 10:41 | -33.60955 | 148.13990 | 25428 ft | 347 kts | 10° |
| 2026-04-17 10:41 | -33.58712 | 148.15076 | 25432 ft | 348 kts | 10° |
| 2026-04-17 10:41 | -33.56454 | 148.16165 | 25439 ft | 350 kts | 10° |
| 2026-04-17 10:41 | -33.54194 | 148.17253 | 25441 ft | 351 kts | 10° |
| 2026-04-17 10:42 | -33.52687 | 148.17977 | 25440 ft | 352 kts | 10° |
| 2026-04-17 10:42 | -33.50416 | 148.19067 | 25435 ft | 352 kts | 11° |
| 2026-04-17 10:42 | -33.48122 | 148.20141 | 25438 ft | 351 kts | 10° |
| 2026-04-17 10:42 | -33.45896 | 148.20341 | 25392 ft | 300 kts | 327° |
| 2026-04-17 10:43 | -33.44169 | 148.19065 | 25418 ft | 288 kts | 315° |
| 2026-04-17 10:43 | -33.42562 | 148.17639 | 25426 ft | 288 kts | 313° |
| 2026-04-17 10:43 | -33.40983 | 148.16163 | 25435 ft | 288 kts | 312° |
| 2026-04-17 10:43 | -33.39423 | 148.14673 | 25435 ft | 286 kts | 311° |
| 2026-04-17 10:44 | -33.37856 | 148.13163 | 25430 ft | 292 kts | 311° |
| 2026-04-17 10:44 | -33.36267 | 148.11620 | 25425 ft | 296 kts | 311° |
| 2026-04-17 10:44 | -33.34658 | 148.10050 | 25426 ft | 300 kts | 311° |
| 2026-04-17 10:44 | -33.33119 | 148.08470 | 26262 ft | 268 kts | 302° |
| 2026-04-17 10:45 | -33.32101 | 148.06775 | 27851 ft | 253 kts | 294° |
| 2026-04-17 10:45 | -33.31382 | 148.04848 | 29141 ft | 250 kts | 278° |
| 2026-04-17 10:45 | -33.31451 | 148.02800 | 30832 ft | 250 kts | 257° |
| 2026-04-17 10:45 | -33.32419 | 148.01030 | 32274 ft | 270 kts | 227° |
| 2026-04-17 10:46 | -33.34337 | 148.00488 | 34103 ft | 302 kts | 197° |
| 2026-04-17 10:46 | -33.36536 | 148.01002 | 35118 ft | 343 kts | 177° |
| 2026-04-17 10:46 | -33.38758 | 148.02436 | 35889 ft | 383 kts | 159° |
| 2026-04-17 10:46 | -33.40933 | 148.04389 | 36722 ft | 397 kts | 155° |
| 2026-04-17 10:47 | -33.43084 | 148.06591 | 37278 ft | 423 kts | 150° |
| 2026-04-17 10:47 | -33.45306 | 148.09015 | 37603 ft | 452 kts | 149° |
| 2026-04-17 10:47 | -33.47739 | 148.11670 | 38095 ft | 491 kts | 149° |
| 2026-04-17 10:47 | -33.50349 | 148.14704 | 38497 ft | 537 kts | 142° |
| 2026-04-17 10:48 | -33.52895 | 148.18010 | 38748 ft | 556 kts | 141° |
| 2026-04-17 10:48 | -33.55560 | 148.21495 | 38791 ft | 576 kts | 141° |
| 2026-04-17 10:48 | -33.58194 | 148.24881 | 38932 ft | 587 kts | 143° |
| 2026-04-17 10:48 | -33.60412 | 148.27511 | 39384 ft | 585 kts | 144° |
| 2026-04-17 10:49 | -33.63297 | 148.31037 | 39642 ft | 603 kts | 140° |
| 2026-04-17 10:49 | -33.66203 | 148.34740 | 39910 ft | 619 kts | 141° |
| 2026-04-17 10:49 | -33.69224 | 148.38475 | 39933 ft | 629 kts | 142° |
| 2026-04-17 10:50 | -33.75458 | 148.46045 | 39990 ft | 645 kts | 142° |
| 2026-04-17 10:50 | -33.81836 | 148.53801 | 40000 ft | 656 kts | 141° |
| 2026-04-17 10:50 | -33.85054 | 148.57731 | 39803 ft | 664 kts | 141° |
| 2026-04-17 10:51 | -33.88300 | 148.61772 | 39551 ft | 675 kts | 140° |
| 2026-04-17 10:51 | -33.91513 | 148.65830 | 39436 ft | 679 kts | 140° |
| 2026-04-17 10:51 | -33.94766 | 148.69951 | 39443 ft | 680 kts | 140° |
| 2026-04-17 10:52 | -34.01339 | 148.78187 | 39323 ft | 674 kts | 141° |
| 2026-04-17 10:52 | -34.04493 | 148.82131 | 39208 ft | 632 kts | 141° |
| 2026-04-17 10:52 | -34.07392 | 148.85783 | 39243 ft | 575 kts | 141° |
| 2026-04-17 10:52 | -34.10040 | 148.89265 | 39149 ft | 556 kts | 141° |
| 2026-04-17 10:53 | -34.12638 | 148.92727 | 39160 ft | 564 kts | 141° |
| 2026-04-17 10:53 | -34.15187 | 148.96451 | 39210 ft | 585 kts | 135° |
| 2026-04-17 10:53 | -34.17945 | 149.00108 | 39179 ft | 596 kts | 141° |
| 2026-04-17 10:53 | -34.20746 | 149.03738 | 39213 ft | 575 kts | 141° |
| 2026-04-17 10:54 | -34.23373 | 149.07191 | 39117 ft | 547 kts | 141° |
| 2026-04-17 10:54 | -34.25921 | 149.10590 | 38968 ft | 549 kts | 141° |
| 2026-04-17 10:54 | -34.28494 | 149.13991 | 37656 ft | 549 kts | 140° |
| 2026-04-17 10:54 | -34.31028 | 149.17430 | 37093 ft | 542 kts | 139° |
| 2026-04-17 10:55 | -34.33517 | 149.20807 | 36719 ft | 532 kts | 140° |
| 2026-04-17 10:55 | -34.36004 | 149.24116 | 35448 ft | 541 kts | 140° |
| 2026-04-17 10:55 | -34.38516 | 149.27441 | 34343 ft | 527 kts | 138° |
| 2026-04-17 10:55 | -34.40850 | 149.30818 | 33139 ft | 525 kts | 131° |
| 2026-04-17 10:56 | -34.42674 | 149.34673 | 31882 ft | 533 kts | 116° |
| 2026-04-17 10:56 | -34.43629 | 149.38972 | 30939 ft | 523 kts | 100° |
| 2026-04-17 10:56 | -34.44161 | 149.43258 | 30477 ft | 506 kts | 100° |
| 2026-04-17 10:56 | -34.44699 | 149.47399 | 29899 ft | 489 kts | 99° |
| 2026-04-17 10:57 | -34.45188 | 149.51412 | 29177 ft | 481 kts | 98° |
| 2026-04-17 10:57 | -34.45666 | 149.55484 | 28453 ft | 489 kts | 99° |
| 2026-04-17 10:57 | -34.46149 | 149.59572 | 27851 ft | 493 kts | 98° |
| 2026-04-17 10:57 | -34.46652 | 149.63694 | 27187 ft | 493 kts | 99° |
| 2026-04-17 10:58 | -34.47145 | 149.67787 | 26537 ft | 488 kts | 98° |
| 2026-04-17 10:58 | -34.47627 | 149.71845 | 25882 ft | 482 kts | 98° |
| 2026-04-17 10:58 | -34.48078 | 149.75774 | 25258 ft | 473 kts | 98° |
| 2026-04-17 10:58 | -34.48542 | 149.79794 | 24637 ft | 483 kts | 98° |
| 2026-04-17 10:59 | -34.49012 | 149.83792 | 23999 ft | 483 kts | 98° |
| 2026-04-17 10:59 | -34.49477 | 149.87755 | 23309 ft | 467 kts | 97° |
| 2026-04-17 10:59 | -34.49607 | 149.91742 | 22518 ft | 483 kts | 85° |
| 2026-04-17 10:59 | -34.48850 | 149.95605 | 22015 ft | 463 kts | 65° |
| 2026-04-17 11:00 | -34.47491 | 149.99069 | 21585 ft | 451 kts | 58° |
| 2026-04-17 11:00 | -34.46090 | 150.02374 | 21023 ft | 443 kts | 57° |
| 2026-04-17 11:00 | -34.44678 | 150.05623 | 20421 ft | 412 kts | 57° |
| 2026-04-17 11:00 | -34.43399 | 150.08524 | 19850 ft | 368 kts | 56° |
| 2026-04-17 11:01 | -34.42228 | 150.11144 | 18916 ft | 338 kts | 56° |
| 2026-04-17 11:01 | -34.41259 | 150.13371 | 19114 ft | 252 kts | 56° |
| 2026-04-17 11:01 | -34.40551 | 150.13543 | 18817 ft | 128 kts | 240° |
| 2026-04-17 11:01 | -34.41046 | 150.14597 | 18480 ft | 255 kts | 66° |
| 2026-04-17 11:02 | -34.40191 | 150.16714 | 18385 ft | 294 kts | 54° |
| 2026-04-17 11:02 | -34.39251 | 150.18887 | 18123 ft | 300 kts | 57° |
| 2026-04-17 11:02 | -34.38093 | 150.21414 | 17877 ft | 391 kts | 54° |
| 2026-04-17 11:02 | -34.36602 | 150.24528 | 17332 ft | 459 kts | 55° |
| 2026-04-17 11:03 | -34.34911 | 150.28086 | 16727 ft | 514 kts | 57° |
| 2026-04-17 11:03 | -34.33067 | 150.32118 | 16206 ft | 582 kts | 58° |
| 2026-04-17 11:03 | -34.31025 | 150.36511 | 15601 ft | 602 kts | 59° |
| 2026-04-17 11:03 | -34.29294 | 150.40295 | 14996 ft | 434 kts | 58° |
| 2026-04-17 11:04 | -34.27819 | 150.43547 | 14479 ft | 440 kts | 58° |
| 2026-04-17 11:04 | -34.26460 | 150.46564 | 13911 ft | 405 kts | 59° |
| 2026-04-17 11:04 | -34.25178 | 150.49441 | 13388 ft | 389 kts | 59° |
| 2026-04-17 11:04 | -34.23917 | 150.52249 | 12883 ft | 370 kts | 59° |
| 2026-04-17 11:05 | -34.22676 | 150.55022 | 12403 ft | 373 kts | 59° |
| 2026-04-17 11:05 | -34.21451 | 150.57769 | 11919 ft | 372 kts | 59° |
| 2026-04-17 11:05 | -34.20226 | 150.60489 | 11465 ft | 374 kts | 59° |
| 2026-04-17 11:05 | -34.19016 | 150.63191 | 11053 ft | 359 kts | 60° |
| 2026-04-17 11:06 | -34.17827 | 150.65842 | 10843 ft | 352 kts | 59° |
| 2026-04-17 11:06 | -34.16678 | 150.68395 | 10663 ft | 339 kts | 60° |
| 2026-04-17 11:06 | -34.15571 | 150.70853 | 10486 ft | 322 kts | 59° |
| 2026-04-17 11:06 | -34.14487 | 150.73235 | 10307 ft | 313 kts | 59° |
| 2026-04-17 11:07 | -34.13429 | 150.75514 | 10145 ft | 329 kts | 60° |
| 2026-04-17 11:07 | -34.12399 | 150.77851 | 9796 ft | 304 kts | 60° |
| 2026-04-17 11:07 | -34.11377 | 150.80161 | 9421 ft | 305 kts | 59° |
| 2026-04-17 11:07 | -34.10350 | 150.82396 | 9052 ft | 314 kts | 59° |
| 2026-04-17 11:08 | -34.09342 | 150.84647 | 8787 ft | 307 kts | 60° |
| 2026-04-17 11:08 | -34.08341 | 150.86881 | 8600 ft | 294 kts | 59° |
| 2026-04-17 11:08 | -34.07373 | 150.89021 | 8377 ft | 298 kts | 60° |
| 2026-04-17 11:08 | -34.06411 | 150.91162 | 8175 ft | 289 kts | 59° |
| 2026-04-17 11:09 | -34.05466 | 150.93251 | 7926 ft | 275 kts | 59° |
| 2026-04-17 11:09 | -34.04550 | 150.94854 | 7961 ft | 192 kts | 51° |
| 2026-04-17 11:09 | -34.03880 | 150.96608 | 7626 ft | 300 kts | 67° |
| 2026-04-17 11:10 | -34.01925 | 151.00911 | 7120 ft | 297 kts | 52° |
| 2026-04-17 11:10 | -34.00424 | 151.02420 | 6870 ft | 280 kts | 24° |
| 2026-04-17 11:10 | -33.98568 | 151.02991 | 6706 ft | 270 kts | 4° |
| 2026-04-17 11:10 | -33.96695 | 151.03248 | 6558 ft | 272 kts | 3° |
| 2026-04-17 11:11 | -33.94844 | 151.03460 | 6452 ft | 265 kts | 2° |
| 2026-04-17 11:11 | -33.92996 | 151.03699 | 6360 ft | 263 kts | 2° |
| 2026-04-17 11:11 | -33.91143 | 151.03798 | 6300 ft | 261 kts | 352° |
| 2026-04-17 11:11 | -33.89373 | 151.03362 | 6300 ft | 263 kts | 344° |
| 2026-04-17 11:12 | -33.87553 | 151.02813 | 6330 ft | 265 kts | 342° |
| 2026-04-17 11:12 | -33.85798 | 151.02281 | 6330 ft | 264 kts | 343° |
| 2026-04-17 11:12 | -33.84047 | 151.01747 | 6339 ft | 269 kts | 342° |
| 2026-04-17 11:12 | -33.82265 | 151.01218 | 6111 ft | 256 kts | 342° |
| 2026-04-17 11:13 | -33.80521 | 151.00678 | 5800 ft | 259 kts | 342° |
| 2026-04-17 11:13 | -33.78745 | 151.00180 | 5491 ft | 263 kts | 348° |
| 2026-04-17 11:13 | -33.76918 | 151.00440 | 5211 ft | 263 kts | 17° |
| 2026-04-17 11:13 | -33.75390 | 151.01662 | 4852 ft | 281 kts | 43° |
| 2026-04-17 11:14 | -33.74432 | 151.03665 | 4322 ft | 276 kts | 71° |
| 2026-04-17 11:14 | -33.74221 | 151.06053 | 3776 ft | 289 kts | 91° |
| 2026-04-17 11:14 | -33.74276 | 151.08431 | 3433 ft | 296 kts | 93° |
| 2026-04-17 11:14 | -33.74393 | 151.10756 | 3376 ft | 263 kts | 98° |
| 2026-04-17 11:15 | -33.75104 | 151.12681 | 3233 ft | 242 kts | 135° |
| 2026-04-17 11:15 | -33.76437 | 151.13583 | 3161 ft | 211 kts | 171° |
| 2026-04-17 11:15 | -33.77796 | 151.13689 | 3128 ft | 186 kts | 182° |
| 2026-04-17 11:15 | -33.79013 | 151.13718 | 2791 ft | 175 kts | 180° |
| 2026-04-17 11:16 | -33.80238 | 151.14005 | 2265 ft | 182 kts | 160° |
| 2026-04-17 11:16 | -33.81589 | 151.14856 | 2236 ft | 217 kts | 163° |
| 2026-04-17 11:16 | -33.82583 | 151.14528 | 2304 ft | 114 kts | 241° |
| 2026-04-17 11:16 | -33.83217 | 151.14489 | 1897 ft | 165 kts | 142° |
| 2026-04-17 11:17 | -33.84203 | 151.14998 | 1855 ft | 170 kts | 170° |
| 2026-04-17 11:17 | -33.84629 | 151.16220 | 1376 ft | 225 kts | 103° |
| 2026-04-17 11:17 | -33.85015 | 151.18373 | 1043 ft | 251 kts | 105° |
| 2026-04-17 11:17 | -33.85378 | 151.20182 | 852 ft | 205 kts | 109° |
| 2026-04-17 11:18 | -33.85646 | 151.22094 | 856 ft | 259 kts | 94° |
| 2026-04-17 11:18 | -33.85135 | 151.24330 | 708 ft | 296 kts | 68° |
| 2026-04-17 11:18 | -33.83938 | 151.26377 | 645 ft | 303 kts | 60° |
| 2026-04-17 11:18 | -33.82976 | 151.28625 | 641 ft | 301 kts | 69° |
| 2026-04-17 11:19 | -33.81768 | 151.30566 | 519 ft | 301 kts | 27° |
| 2026-04-17 11:19 | -33.79636 | 151.31045 | 467 ft | 337 kts | 11° |
| 2026-04-17 11:19 | -33.77154 | 151.31522 | 508 ft | 380 kts | 12° |
| 2026-04-17 11:19 | -33.74468 | 151.32070 | 549 ft | 402 kts | 12° |
| 2026-04-17 11:20 | -33.71679 | 151.32661 | 661 ft | 410 kts | 12° |
| 2026-04-17 11:20 | -33.68847 | 151.33299 | 718 ft | 414 kts | 13° |
| 2026-04-17 11:20 | -33.66015 | 151.33984 | 761 ft | 415 kts | 13° |
| 2026-04-17 11:20 | -33.63188 | 151.34645 | 865 ft | 414 kts | 12° |
| 2026-04-17 11:21 | -33.60438 | 151.35532 | 797 ft | 414 kts | 26° |
| 2026-04-17 11:21 | -33.57991 | 151.37343 | 770 ft | 414 kts | 36° |
| 2026-04-17 11:21 | -33.55580 | 151.39251 | 704 ft | 412 kts | 36° |
| 2026-04-17 11:21 | -33.53290 | 151.41119 | 680 ft | 387 kts | 37° |
| 2026-04-17 11:22 | -33.51131 | 151.42941 | 695 ft | 373 kts | 37° |
| 2026-04-17 11:22 | -33.49020 | 151.44701 | 712 ft | 368 kts | 34° |
| 2026-04-17 11:22 | -33.46695 | 151.45965 | 647 ft | 368 kts | 23° |
| 2026-04-17 11:22 | -33.44276 | 151.47065 | 632 ft | 376 kts | 23° |
| 2026-04-17 11:23 | -33.41795 | 151.48159 | 633 ft | 384 kts | 22° |
| 2026-04-17 11:23 | -33.39270 | 151.49270 | 613 ft | 388 kts | 22° |
| 2026-04-17 11:23 | -33.36734 | 151.50401 | 658 ft | 388 kts | 22° |
| 2026-04-17 11:23 | -33.34213 | 151.51559 | 711 ft | 386 kts | 23° |
| 2026-04-17 11:24 | -33.32117 | 151.53468 | 801 ft | 382 kts | 50° |
| 2026-04-17 11:24 | -33.30323 | 151.55833 | 756 ft | 387 kts | 50° |
| 2026-04-17 11:24 | -33.28307 | 151.57760 | 917 ft | 378 kts | 9° |
| 2026-04-17 11:24 | -33.25661 | 151.57743 | 778 ft | 384 kts | 360° |
| 2026-04-17 11:25 | -33.23271 | 151.58838 | 924 ft | 378 kts | 42° |
| 2026-04-17 11:25 | -33.21265 | 151.60911 | 885 ft | 384 kts | 43° |
| 2026-04-17 11:25 | -33.19128 | 151.62868 | 832 ft | 388 kts | 28° |
| 2026-04-17 11:25 | -33.16592 | 151.63905 | 795 ft | 387 kts | 19° |
| 2026-04-17 11:26 | -33.14010 | 151.64844 | 728 ft | 388 kts | 18° |
| 2026-04-17 11:26 | -33.11416 | 151.65759 | 663 ft | 390 kts | 18° |
| 2026-04-17 11:26 | -33.08854 | 151.66794 | 694 ft | 386 kts | 28° |
| 2026-04-17 11:26 | -33.06588 | 151.68521 | 684 ft | 387 kts | 36° |
| 2026-04-17 11:27 | -33.04356 | 151.70309 | 719 ft | 386 kts | 36° |
| 2026-04-17 11:27 | -33.02131 | 151.72095 | 725 ft | 386 kts | 37° |
| 2026-04-17 11:27 | -32.99935 | 151.73883 | 804 ft | 386 kts | 37° |
| 2026-04-17 11:27 | -32.97708 | 151.75694 | 684 ft | 392 kts | 36° |
| 2026-04-17 11:28 | -32.96140 | 151.76864 | 649 ft | 390 kts | 33° |
| 2026-04-17 11:28 | -32.93313 | 151.79425 | 766 ft | 381 kts | 46° |
| 2026-04-17 11:28 | -32.92026 | 151.80871 | 710 ft | 386 kts | 46° |
| 2026-04-17 11:28 | -32.90135 | 151.82998 | 1228 ft | 375 kts | 45° |
| 2026-04-17 11:29 | -32.87589 | 151.85902 | 1548 ft | 381 kts | 46° |
| 2026-04-17 11:29 | -32.85619 | 151.88042 | 1607 ft | 386 kts | 44° |
| 2026-04-17 11:29 | -32.83175 | 151.88586 | 1536 ft | 376 kts | 335° |
| 2026-04-17 11:29 | -32.81944 | 151.87140 | 1496 ft | 371 kts | 309° |
| 2026-04-17 11:30 | -32.80248 | 151.84856 | 1584 ft | 375 kts | 311° |
| 2026-04-17 11:30 | -32.79388 | 151.82479 | 1822 ft | 281 kts | 226° |
| 2026-04-17 11:30 | -32.80767 | 151.83035 | 1676 ft | 211 kts | 131° |
| 2026-04-17 11:30 | -32.81526 | 151.84314 | 1719 ft | 162 kts | 135° |
| 2026-04-17 11:31 | -32.82274 | 151.85359 | 1721 ft | 167 kts | 138° |
| 2026-04-17 11:31 | -32.82939 | 151.86281 | 1604 ft | 125 kts | 134° |
| 2026-04-17 11:31 | -32.82744 | 151.87398 | 1426 ft | 179 kts | 22° |
| 2026-04-17 11:31 | -32.81888 | 151.86787 | 690 ft | 152 kts | 306° |
| 2026-04-17 11:32 | -32.81197 | 151.85737 | 307 ft | 169 kts | 307° |
| 2026-04-17 11:32 | -32.80451 | 151.84697 | 46 ft | 150 kts | 307° |
| 2026-04-17 11:32 | -32.79890 | 151.83900 | 32 ft | 105 kts | 310° |
| 2026-04-17 11:32 | -32.79500 | 151.83357 | 27 ft | 74 kts | 310° |
| 2026-04-17 11:33 | -32.79261 | 151.83041 | 30 ft | 28 kts | 323° |
| 2026-04-17 11:33 | -32.79136 | 151.83089 | 31 ft | 23 kts | 66° |
| 2026-04-17 11:33 | -32.79201 | 151.83232 | 32 ft | 13 kts | 129° |
| 2026-04-17 11:33 | -32.79280 | 151.83339 | 30 ft | 23 kts | 132° |
| 2026-04-17 11:34 | -32.79348 | 151.83472 | 28 ft | 16 kts | 51° |
| 2026-04-17 11:34 | -32.79241 | 151.83582 | 31 ft | 22 kts | 40° |
| 2026-04-17 11:34 | -32.79147 | 151.83677 | 31 ft | 16 kts | 42° |
| 2026-04-17 11:34 | -32.79068 | 151.83726 | 30 ft | 12 kts | 324° |
| 2026-04-17 11:35 | -32.78997 | 151.83718 | 30 ft | 12 kts | 53° |
| 2026-04-17 11:35 | -32.79034 | 151.83782 | 30 ft | 11 kts | 143° |
| 2026-04-17 11:35 | -32.79083 | 151.83803 | 30 ft | 7 kts | 231° |
| 2026-04-17 11:35 | -32.79095 | 151.83782 | 30 ft | 0 kts | 237° |